Terminal Aerodrome Forecast
Issued by NWS Lake Charles, LA

Home | Current Version | Previous Version | Text Only | Print | Product List | Glossary On
Versions: 1 2 3 4 5 6 7 8 9 10 11 12 13 14 15 16 17 18 19 20 21 22 23 24 25 26 27
396
FTUS44 KLCH 071558 AAB
TAFLCH
TAF AMD
KLCH 071558Z 0716/0812 06007KT P6SM OVC005
      TEMPO 0716/0718 5SM BR OVC004
     FM071800 06008KT P6SM OVC010
     FM080300 03008KT P6SM OVC007
      TEMPO 0806/0810 5SM -DZ BR OVC007=

USA.gov is the U.S. government's official web portal to all federal, state and local government web resources and services.